Pendleton, New York
Current Conditions -  °F | °C
As of 7:53 PM on Saturday 25 Oct 2014 (Local Time) from KIAG Reporting Station
Few Clouds Few Clouds  
Wind Chill: 55°   Ceiling: Unl
Heat Index: 55°   Visibility: 7mi
Dew Point: 50°   Wind: 12mph
Humidity: 83%   Direction: 220°SW
Pressure: 29.62"   Gusts: NA
Location:  43.0772°N, 78.8339°W
Report Text: KIAG 252353Z 22010KT 7SM FEW060 FEW075 13/10 A2962 RMK AO2 SLP035 T01280100 10161 20122 50003
Loading
Personal Weather Stations






























Interactive Weather Map
Tropical Storm Tracking
New forecast layout! Learn more

10-Day Weather Forecast

Advertisements
Track Severe Weather on mobile